createdAt,value
2019-01-10T00:01:59.884Z,99129.69
2019-01-10T00:05:13.932Z,99138.70
2019-01-10T00:08:27.649Z,99135.39
2019-01-10T00:11:41.256Z,99141.53
2019-01-10T00:14:54.888Z,99153.83
2019-01-10T00:18:08.489Z,99150.02
2019-01-10T00:21:22.108Z,99154.50
2019-01-10T00:24:35.768Z,99154.34
2019-01-10T00:27:49.413Z,99158.33
2019-01-10T00:31:03.217Z,99163.09
2019-01-10T00:34:16.890Z,99159.45
2019-01-10T00:37:30.595Z,99169.55
2019-01-10T00:40:44.407Z,99176.80
2019-01-10T00:43:58.077Z,99176.44
2019-01-10T00:47:11.954Z,99176.47
2019-01-10T00:50:25.523Z,99190.66
2019-01-10T00:53:39.214Z,99187.19
2019-01-10T00:56:52.827Z,99200.27
2019-01-10T01:00:10.313Z,99199.16
2019-01-10T01:03:23.975Z,99201.33
2019-01-10T01:06:37.937Z,99206.59
2019-01-10T01:09:51.836Z,99202.98
2019-01-10T01:13:06.272Z,99207.66
2019-01-10T01:16:19.934Z,99213.66
2019-01-10T01:19:33.605Z,99219.27
2019-01-10T01:22:47.454Z,99219.98
2019-01-10T01:26:00.990Z,99225.56
2019-01-10T01:29:14.662Z,99224.31
2019-01-10T01:32:28.334Z,99229.20
2019-01-10T01:35:42.099Z,99231.72
2019-01-10T01:38:55.658Z,99241.68
2019-01-10T01:42:09.411Z,99244.00
2019-01-10T01:45:23.406Z,99248.17
2019-01-10T01:48:37.313Z,99250.89
2019-01-10T01:51:51.458Z,99257.94
2019-01-10T01:55:05.971Z,99252.13
2019-01-10T01:58:19.619Z,99256.81
2019-01-10T02:01:33.295Z,99247.22
2019-01-10T02:04:46.840Z,99254.44
2019-01-10T02:08:00.616Z,99265.81
2019-01-10T02:11:14.368Z,99267.10
2019-01-10T02:14:28.362Z,99268.16
2019-01-10T02:17:48.908Z,99268.52
2019-01-10T02:20:57.957Z,99269.78
2019-01-10T02:24:12.747Z,99278.14
2019-01-10T02:27:26.462Z,99268.73
2019-01-10T02:30:42.268Z,99271.63
2019-01-10T02:33:55.746Z,99271.63
2019-01-10T02:37:09.489Z,99267.84
2019-01-10T02:40:23.510Z,99285.19
2019-01-10T02:43:37.238Z,99287.04
2019-01-10T02:46:51.602Z,99282.50
2019-01-10T02:50:07.538Z,99281.23
2019-01-10T02:53:21.397Z,99277.09
2019-01-10T02:56:35.124Z,99274.39
2019-01-10T02:59:48.679Z,99281.80
2019-01-10T03:03:02.478Z,99286.47
2019-01-10T03:06:16.244Z,99287.05
2019-01-10T03:09:30.179Z,99288.48
2019-01-10T03:12:43.928Z,99297.70
2019-01-10T03:15:57.539Z,99288.83
2019-01-10T03:19:11.384Z,99282.52
2019-01-10T03:26:52.764Z,99289.38
2019-01-10T03:30:08.772Z,99287.38
2019-01-10T03:33:23.027Z,99291.55
2019-01-10T03:36:36.878Z,99286.13
2019-01-10T03:39:50.997Z,99289.38
2019-01-10T03:43:04.819Z,99286.66
2019-01-10T03:46:18.540Z,99286.66
2019-01-10T03:49:32.265Z,99286.28
2019-01-10T03:52:46.267Z,99288.12
2019-01-10T03:56:00.144Z,99292.45
2019-01-10T03:59:13.700Z,99290.27
2019-01-10T04:02:27.340Z,99290.11
2019-01-10T04:05:41.097Z,99292.47
2019-01-10T04:08:54.714Z,99292.47
2019-01-10T04:12:08.234Z,99299.88
2019-01-10T04:15:22.167Z,99296.79
2019-01-10T04:18:35.873Z,99292.63
2019-01-10T04:21:49.427Z,99297.35
2019-01-10T04:25:04.246Z,99302.05
2019-01-10T04:28:17.780Z,99306.00
2019-01-10T04:31:31.333Z,99304.20
2019-01-10T04:34:45.107Z,99313.23
2019-01-10T04:37:58.626Z,99312.15
2019-01-10T04:41:12.266Z,99313.23
2019-01-10T04:44:25.800Z,99316.50
2019-01-10T04:47:39.764Z,99318.84
2019-01-10T04:50:53.368Z,99320.65
2019-01-10T04:54:06.983Z,99318.65
2019-01-10T04:57:20.988Z,99323.01
2019-01-10T05:00:34.623Z,99325.19
2019-01-10T05:03:48.235Z,99330.59
2019-01-10T05:07:01.871Z,99324.81
2019-01-10T05:10:15.648Z,99332.21
2019-01-10T05:13:29.142Z,99332.39
2019-01-10T05:16:42.800Z,99332.39
2019-01-10T05:19:56.597Z,99335.83
2019-01-10T05:23:10.271Z,99334.17
2019-01-10T05:26:24.341Z,99337.80
2019-01-10T05:29:38.094Z,99339.23
2019-01-10T05:32:53.162Z,99337.78
2019-01-10T05:36:06.916Z,99345.36
2019-01-10T05:39:20.417Z,99339.22
2019-01-10T05:42:34.580Z,99348.95
2019-01-10T05:45:48.236Z,99355.80
2019-01-10T05:49:01.900Z,99340.84
2019-01-10T05:52:15.557Z,99353.28
2019-01-10T05:55:29.065Z,99363.40
2019-01-10T05:58:44.533Z,99361.61
2019-01-10T06:01:58.158Z,99358.37
2019-01-10T06:05:12.279Z,99359.82
2019-01-10T06:08:25.859Z,99365.72
2019-01-10T06:11:39.760Z,99370.23
2019-01-10T06:14:53.412Z,99369.86
2019-01-10T06:18:07.356Z,99373.17
2019-01-10T06:21:20.890Z,99371.02
2019-01-10T06:24:34.392Z,99376.97
2019-01-10T06:27:48.220Z,99377.72
2019-01-10T06:31:01.974Z,99376.11
2019-01-10T06:43:02.631Z,99384.74
2019-01-10T06:46:16.188Z,99392.47
2019-01-10T06:49:30.714Z,99389.57
2019-01-10T06:52:44.548Z,99391.22
2019-01-10T06:55:58.580Z,99398.97
2019-01-10T06:59:12.424Z,99402.11
2019-01-10T07:02:26.390Z,99408.95
2019-01-10T07:05:39.913Z,99408.44
2019-01-10T07:08:53.567Z,99405.16
2019-01-10T07:12:07.843Z,99414.73
2019-01-10T07:15:21.734Z,99420.89
2019-01-10T07:18:35.256Z,99418.95
2019-01-10T07:21:57.723Z,99416.27
2019-01-10T07:25:11.790Z,99425.33
2019-01-10T07:28:26.363Z,99435.80
2019-01-10T07:31:40.186Z,99436.69
2019-01-10T07:35:00.909Z,99439.77
2019-01-10T07:38:14.969Z,99454.62
2019-01-10T07:41:28.987Z,99453.53
2019-01-10T07:44:43.044Z,99450.13
2019-01-10T07:47:57.391Z,99459.34
2019-01-10T07:51:11.395Z,99460.03
2019-01-10T07:54:25.212Z,99465.08
2019-01-10T07:57:39.209Z,99467.84
2019-01-10T08:00:54.030Z,99470.00
2019-01-10T08:04:07.968Z,99476.17
2019-01-10T08:07:21.653Z,99481.23
2019-01-10T08:10:36.265Z,99487.78
2019-01-10T08:13:50.112Z,99483.97
2019-01-10T08:17:04.024Z,99499.55
2019-01-10T08:20:18.143Z,99504.97
2019-01-10T08:23:32.189Z,99501.73
2019-01-10T08:26:46.357Z,99505.87
2019-01-10T08:30:00.225Z,99509.14
2019-01-10T08:33:14.112Z,99514.38
2019-01-10T08:36:32.606Z,99515.84
2019-01-10T08:39:43.670Z,99519.83
2019-01-10T08:42:57.628Z,99518.57
2019-01-10T08:46:11.399Z,99526.52
2019-01-10T08:49:25.194Z,99526.72
2019-01-10T08:52:39.015Z,99523.80
2019-01-10T08:55:52.863Z,99529.78
2019-01-10T08:59:06.876Z,99526.18
2019-01-10T09:02:20.751Z,99531.97
2019-01-10T09:05:34.743Z,99536.50
2019-01-10T09:08:48.453Z,99535.22
2019-01-10T09:12:02.330Z,99542.48
2019-01-10T09:15:23.312Z,99539.20
2019-01-10T09:18:31.697Z,99536.84
2019-01-10T09:21:45.555Z,99537.15
2019-01-10T09:24:59.202Z,99539.34
2019-01-10T09:28:13.179Z,99538.84
2019-01-10T09:31:26.818Z,99546.44
2019-01-10T09:34:41.058Z,99550.58
2019-01-10T09:37:54.874Z,99549.50
2019-01-10T09:41:09.058Z,99548.19
2019-01-10T09:44:22.636Z,99552.16
2019-01-10T09:47:36.284Z,99553.08
2019-01-10T09:50:50.018Z,99555.77
2019-01-10T09:54:04.043Z,99541.05
2019-01-10T09:57:18.777Z,99555.97
2019-01-10T10:00:32.948Z,99554.80
2019-01-10T10:03:47.027Z,99562.28
2019-01-10T10:07:01.018Z,99563.55
2019-01-10T10:10:16.413Z,99564.03
2019-01-10T10:13:30.300Z,99563.23
2019-01-10T10:16:44.234Z,99570.57
2019-01-10T10:19:58.284Z,99561.30
2019-01-10T10:23:14.390Z,99563.93
2019-01-10T10:26:27.604Z,99565.03
2019-01-10T10:29:41.183Z,99568.33
2019-01-10T10:32:54.848Z,99569.08
2019-01-10T10:36:08.769Z,99572.33
2019-01-10T10:39:22.589Z,99573.07
2019-01-10T10:42:36.771Z,99569.64
2019-01-10T10:45:50.587Z,99564.36
2019-01-10T10:49:04.676Z,99567.61
2019-01-10T10:56:46.213Z,99571.41
2019-01-10T11:00:00.329Z,99572.34
2019-01-10T11:11:27.565Z,99569.98
2019-01-10T11:14:41.219Z,99566.89
2019-01-10T11:17:55.098Z,99563.45
2019-01-10T11:21:08.946Z,99569.78
2019-01-10T11:34:22.295Z,99571.98
2019-01-10T11:38:23.687Z,99570.51
2019-01-10T11:42:12.406Z,99571.61
2019-01-10T11:55:08.824Z,99556.72
2019-01-10T11:59:06.679Z,99553.67
2019-01-10T12:02:45.279Z,99557.48
2019-01-10T12:06:35.990Z,99553.48
2019-01-10T12:16:59.167Z,99557.48
2019-01-10T12:21:14.838Z,99557.48
2019-01-10T14:48:01.939Z,99581.91
2019-01-10T14:51:15.422Z,99581.91
2019-01-10T14:54:29.205Z,99593.68
2019-01-10T14:57:43.123Z,99592.20
2019-01-10T15:00:56.714Z,99592.19
2019-01-10T15:04:10.934Z,99589.66
2019-01-10T15:07:24.645Z,99602.72
2019-01-10T15:10:38.232Z,99599.27
2019-01-10T15:13:51.715Z,99602.19
2019-01-10T15:17:05.286Z,99599.80
2019-01-10T15:20:24.315Z,99598.76
2019-01-10T15:23:37.810Z,99603.61
2019-01-10T15:26:51.253Z,99605.92
2019-01-10T15:30:07.952Z,99608.62
2019-01-10T15:33:21.847Z,99607.54
2019-01-10T15:36:35.330Z,99616.02
2019-01-10T15:39:49.138Z,99617.96
2019-01-10T15:43:05.120Z,99625.55
2019-01-10T15:46:18.707Z,99624.82
2019-01-10T15:49:32.404Z,99614.16
2019-01-10T15:52:46.593Z,99625.19
2019-01-10T15:56:00.164Z,99625.47
2019-01-10T15:59:13.672Z,99630.09
2019-01-10T16:02:27.298Z,99639.97
2019-01-10T16:05:40.798Z,99640.05
2019-01-10T16:08:54.439Z,99638.69
2019-01-10T16:12:08.263Z,99644.17
2019-01-10T16:15:23.315Z,99641.06
2019-01-10T16:18:36.814Z,99647.32
2019-01-10T16:21:50.413Z,99649.67
2019-01-10T16:25:05.178Z,99645.75
2019-01-10T16:28:18.992Z,99657.07
2019-01-10T16:31:32.500Z,99657.44
2019-01-10T16:34:46.157Z,99665.91
2019-01-10T16:38:00.243Z,99667.92
2019-01-10T16:41:14.321Z,99673.05
2019-01-10T16:44:27.972Z,99674.16
2019-01-10T16:47:41.909Z,99692.12
2019-01-10T16:50:55.618Z,99682.75
2019-01-10T16:54:09.210Z,99687.00
2019-01-10T16:57:23.149Z,99688.58
2019-01-10T17:00:37.191Z,99686.20
2019-01-10T17:03:50.780Z,99685.28
2019-01-10T17:07:04.590Z,99678.78
2019-01-10T17:10:18.525Z,99686.36
2019-01-10T17:13:32.090Z,99676.25
2019-01-10T17:16:50.135Z,99681.30
2019-01-10T17:20:01.069Z,99679.89
2019-01-10T17:23:14.751Z,99679.38
2019-01-10T17:26:28.213Z,99687.17
2019-01-10T17:29:42.060Z,99691.46
2019-01-10T17:32:55.590Z,99689.14
2019-01-10T17:36:09.202Z,99692.08
2019-01-10T17:39:42.371Z,99690.73
2019-01-10T17:42:56.452Z,99691.48
2019-01-10T17:46:09.950Z,99685.67
2019-01-10T17:49:23.680Z,99681.49
2019-01-10T17:52:37.668Z,99682.83
2019-01-10T17:55:51.414Z,99686.77
2019-01-10T17:59:05.153Z,99696.38
2019-01-10T18:02:18.762Z,99692.52
2019-01-10T18:05:32.572Z,99696.73
2019-01-10T18:08:46.249Z,99709.17
2019-01-10T18:11:59.719Z,99711.95
2019-01-10T18:15:15.281Z,99715.09
2019-01-10T18:18:28.787Z,99712.26
2019-01-10T18:21:42.695Z,99717.91
2019-01-10T18:24:56.494Z,99718.12
2019-01-10T18:28:10.724Z,99719.61
2019-01-10T18:31:24.660Z,99715.41
2019-01-10T18:34:38.462Z,99715.89
2019-01-10T18:37:53.051Z,99723.73
2019-01-10T18:41:06.680Z,99729.22
2019-01-10T18:44:20.533Z,99726.75
2019-01-10T18:47:34.010Z,99721.41
2019-01-10T18:50:47.614Z,99719.46
2019-01-10T18:54:01.133Z,99724.43
2019-01-10T18:57:14.978Z,99721.13
2019-01-10T19:00:29.799Z,99729.42
2019-01-10T19:03:43.250Z,99732.77
2019-01-10T19:06:56.791Z,99728.66
2019-01-10T19:10:11.442Z,99732.20
2019-01-10T19:13:25.052Z,99734.50
2019-01-10T19:16:38.559Z,99732.09
2019-01-10T19:19:52.116Z,99733.42
2019-01-10T19:23:05.819Z,99737.73
2019-01-10T19:26:19.446Z,99743.09
2019-01-10T19:29:33.385Z,99726.70
2019-01-10T19:32:47.265Z,99734.13
2019-01-10T19:36:00.769Z,99736.59
2019-01-10T19:39:14.332Z,99737.24
2019-01-10T19:42:27.879Z,99727.36
2019-01-10T19:45:41.527Z,99724.27
2019-01-10T19:48:55.251Z,99726.23
2019-01-10T19:52:09.298Z,99740.03
2019-01-10T19:55:23.402Z,99725.13
2019-01-10T19:58:36.996Z,99724.69
2019-01-10T20:01:51.998Z,99730.42
2019-01-10T20:05:06.373Z,99734.20
2019-01-10T20:08:19.856Z,99732.11
2019-01-10T20:11:33.457Z,99723.81
2019-01-10T20:14:47.721Z,99724.92
2019-01-10T20:18:01.413Z,99734.73
2019-01-10T20:21:14.910Z,99751.17
2019-01-10T20:24:28.536Z,99749.98
2019-01-10T20:27:42.315Z,99756.98
2019-01-10T20:30:56.906Z,99757.70
2019-01-10T20:34:10.385Z,99755.17
2019-01-10T20:37:24.038Z,99752.50
2019-01-10T20:40:37.699Z,99761.34
2019-01-10T20:43:51.205Z,99767.22
2019-01-10T20:47:04.837Z,99761.06
2019-01-10T20:50:18.814Z,99755.11
2019-01-10T20:53:32.736Z,99759.25
2019-01-10T20:56:46.214Z,99754.50
2019-01-10T20:59:59.980Z,99759.55
2019-01-10T21:03:13.878Z,99754.80
2019-01-10T21:06:27.652Z,99759.88
2019-01-10T21:09:41.216Z,99763.02
2019-01-10T21:12:54.752Z,99762.12
2019-01-10T21:16:08.456Z,99765.69
2019-01-10T21:19:22.210Z,99764.86
2019-01-10T21:22:35.931Z,99762.66
2019-01-10T21:25:49.989Z,99762.94
2019-01-10T21:29:03.891Z,99763.45
2019-01-10T21:32:17.732Z,99773.31
2019-01-10T21:35:31.642Z,99772.91
2019-01-10T21:38:45.359Z,99764.89
2019-01-10T21:41:58.960Z,99767.66
2019-01-10T21:45:14.896Z,99753.33
2019-01-10T21:48:28.389Z,99755.98
2019-01-10T21:51:41.980Z,99749.90
2019-01-10T21:54:55.800Z,99761.28
2019-01-10T21:58:09.287Z,99767.41
2019-01-10T22:01:22.853Z,99779.23
2019-01-10T22:04:36.492Z,99771.20
2019-01-10T22:07:50.182Z,99769.50
2019-01-10T22:11:03.967Z,99765.63
2019-01-10T22:14:17.443Z,99767.55
2019-01-10T22:17:30.967Z,99767.63
2019-01-10T22:20:44.696Z,99767.73
2019-01-10T22:23:58.982Z,99761.38
2019-01-10T22:27:12.463Z,99753.34
2019-01-10T22:30:27.371Z,99756.89
2019-01-10T22:33:41.433Z,99750.11
2019-01-10T22:36:54.909Z,99751.28
2019-01-10T22:40:11.171Z,99746.23
2019-01-10T22:43:24.756Z,99751.97
2019-01-10T22:46:38.365Z,99755.73
2019-01-10T22:49:51.953Z,99750.47
2019-01-10T22:53:05.567Z,99744.16
2019-01-10T22:56:19.073Z,99746.83
2019-01-10T22:59:32.672Z,99743.41
2019-01-10T23:02:46.430Z,99742.66
2019-01-10T23:06:00.342Z,99737.03
2019-01-10T23:09:14.313Z,99737.45
2019-01-10T23:12:32.568Z,99735.28
2019-01-10T23:15:46.576Z,99739.22
2019-01-10T23:19:00.577Z,99739.36
2019-01-10T23:22:15.487Z,99734.46
2019-01-10T23:25:29.648Z,99734.94
2019-01-10T23:28:43.126Z,99733.14
2019-01-10T23:31:57.002Z,99734.87
2019-01-10T23:35:10.715Z,99727.91
2019-01-10T23:38:24.485Z,99727.10
2019-01-10T23:41:38.220Z,99725.04
2019-01-10T23:44:52.054Z,99727.70
2019-01-10T23:48:05.565Z,99722.81
2019-01-10T23:51:19.083Z,99724.84
2019-01-10T23:54:32.875Z,99723.44
2019-01-10T23:57:46.757Z,99717.42
